createdAt,value
2019-06-07T05:06:25.323Z,69.69
2019-06-07T05:11:26.225Z,69.60
2019-06-07T05:16:35.200Z,68.38
2019-06-07T05:21:54.264Z,68.85
2019-06-07T05:26:39.154Z,69.34
2019-06-07T05:31:45.270Z,69.09
2019-06-07T05:36:45.245Z,68.91
2019-06-07T05:41:46.377Z,68.32
2019-06-07T05:46:47.680Z,69.74
2019-06-07T05:51:48.668Z,69.78
2019-06-07T05:56:49.568Z,71.04
2019-06-07T06:02:02.080Z,69.82
2019-06-07T06:06:53.221Z,69.51
2019-06-07T06:12:01.539Z,70.00
2019-06-07T06:16:56.872Z,70.36
2019-06-07T06:21:57.771Z,68.45
2019-06-07T06:27:40.664Z,69.77
2019-06-07T06:37:13.601Z,67.33
2019-06-07T06:42:14.488Z,67.70
2019-06-07T06:47:15.375Z,68.55
2019-06-07T06:52:16.270Z,66.78
2019-06-07T06:57:20.086Z,66.39
2019-06-07T07:02:19.924Z,67.08
2019-06-07T07:07:22.291Z,66.45
2019-06-07T07:12:23.166Z,65.44
2019-06-07T07:17:47.154Z,66.91
2019-06-07T07:22:26.820Z,65.60
2019-06-07T07:27:27.703Z,66.07
2019-06-07T07:32:28.586Z,63.65
2019-06-07T07:37:29.620Z,65.39
2019-06-07T07:42:30.543Z,64.94
2019-06-07T07:47:31.449Z,63.40
2019-06-07T07:52:32.296Z,62.07
2019-06-07T07:57:33.177Z,62.92
2019-06-07T08:02:34.760Z,63.22
2019-06-07T08:07:35.641Z,63.10
2019-06-07T08:12:55.759Z,62.45
2019-06-07T08:17:39.297Z,62.67
2019-06-07T08:22:40.261Z,61.76
2019-06-07T08:27:41.141Z,59.54
2019-06-07T08:32:42.046Z,63.12
2019-06-07T08:38:15.062Z,60.33
2019-06-07T08:43:02.806Z,59.49
2019-06-07T08:47:56.531Z,58.47
2019-06-07T08:52:54.727Z,59.32
2019-06-07T08:58:01.544Z,57.75
2019-06-07T09:02:58.929Z,57.26
2019-06-07T09:08:23.847Z,56.79
2019-06-07T09:13:10.099Z,55.59
2019-06-07T09:23:16.817Z,56.56
2019-06-07T09:28:19.156Z,54.67
2019-06-07T09:33:14.643Z,55.66
2019-06-07T09:38:25.015Z,54.42
2019-06-07T09:43:59.867Z,55.96
2019-06-07T09:49:08.964Z,56.89
2019-06-07T09:53:24.893Z,53.77
2019-06-07T10:03:28.553Z,51.52
2019-06-07T10:13:32.234Z,52.06
2019-06-07T10:18:33.114Z,51.59
2019-06-07T10:23:34.772Z,52.26
2019-06-07T10:28:35.648Z,52.48
2019-06-07T10:33:36.539Z,50.63
2019-06-07T10:38:37.407Z,49.31
2019-06-07T10:43:38.286Z,50.52
2019-06-07T10:48:39.257Z,47.41
2019-06-07T10:53:40.135Z,48.85
2019-06-07T10:58:41.326Z,47.59
2019-06-07T11:03:42.305Z,47.25
2019-06-07T11:08:43.300Z,46.54
2019-06-07T11:13:44.177Z,46.25
2019-06-07T11:18:45.154Z,46.81
2019-06-07T11:23:46.149Z,46.34
2019-06-07T11:28:47.031Z,49.05
2019-06-07T11:33:47.924Z,46.56
2019-06-07T11:38:48.899Z,48.47
2019-06-07T11:43:49.787Z,46.63
2019-06-07T11:48:50.646Z,47.25
2019-06-07T11:53:51.522Z,46.55
2019-06-07T11:58:52.445Z,48.84
2019-06-07T12:03:53.473Z,49.50
2019-06-07T12:08:54.478Z,46.27
2019-06-07T12:13:55.593Z,46.60
2019-06-07T12:18:56.574Z,44.86
2019-06-07T12:23:57.473Z,46.94
2019-06-07T12:28:58.325Z,45.64
2019-06-07T12:33:59.214Z,45.89
2019-06-07T12:39:00.112Z,45.10
2019-06-07T12:44:01.957Z,46.56
2019-06-07T12:49:03.611Z,43.18
2019-06-07T12:54:04.924Z,46.37
2019-06-07T12:59:05.798Z,45.52
2019-06-07T13:04:14.318Z,48.80
2019-06-07T13:09:21.863Z,45.82
2019-06-07T13:14:24.040Z,47.25
2019-06-07T13:19:25.122Z,43.89
2019-06-07T13:24:25.999Z,42.87
2019-06-07T13:29:29.577Z,46.14
2019-06-07T13:34:29.712Z,45.55
2019-06-07T13:39:30.579Z,47.67
2019-06-07T13:44:31.572Z,45.24
2019-06-07T13:49:32.449Z,46.76
2019-06-07T13:54:33.339Z,45.90
2019-06-07T13:59:34.210Z,45.68
2019-06-07T14:04:35.077Z,44.96
2019-06-07T14:09:35.954Z,45.72
2019-06-07T14:14:36.825Z,44.54
2019-06-07T14:19:37.704Z,44.19
2019-06-07T14:24:38.567Z,44.48
2019-06-07T14:29:39.551Z,43.33
2019-06-07T14:34:40.551Z,44.72
2019-06-07T14:39:41.739Z,45.26
2019-06-07T14:44:42.606Z,46.08
2019-06-07T14:49:43.581Z,45.91
2019-06-07T14:54:44.571Z,44.68
2019-06-07T14:59:45.444Z,44.22
2019-06-07T15:04:46.744Z,44.93
2019-06-07T15:09:47.598Z,44.02
2019-06-07T15:14:48.472Z,44.04
2019-06-07T15:19:49.365Z,45.09
2019-06-07T15:24:50.240Z,45.44
2019-06-07T15:29:51.119Z,45.63
2019-06-07T15:34:52.004Z,46.34
2019-06-07T15:39:52.877Z,42.60
2019-06-07T15:44:55.917Z,42.21
2019-06-07T15:49:56.526Z,45.05
2019-06-07T15:54:57.399Z,44.91
2019-06-07T15:59:58.276Z,46.43
2019-06-07T16:04:59.257Z,45.76
2019-06-07T16:10:00.127Z,45.38
2019-06-07T16:15:01.000Z,45.25
2019-06-07T16:20:06.386Z,46.51
2019-06-07T16:25:07.361Z,47.11
2019-06-07T16:30:09.836Z,46.77
2019-06-07T16:35:11.524Z,47.39
2019-06-07T16:40:14.031Z,47.34
2019-06-07T16:45:15.128Z,48.09
2019-06-07T16:50:16.386Z,48.58
2019-06-07T16:55:17.359Z,49.30
2019-06-07T17:00:19.751Z,49.75
2019-06-07T17:05:21.214Z,51.18
2019-06-07T17:10:22.215Z,51.87
2019-06-07T17:15:23.372Z,52.54
2019-06-07T17:20:24.454Z,53.84
2019-06-07T17:25:25.354Z,54.28
2019-06-07T17:30:26.300Z,53.93
2019-06-07T17:35:27.191Z,54.58
2019-06-07T17:40:28.069Z,56.07
2019-06-07T17:45:28.940Z,55.54
2019-06-07T17:50:29.918Z,56.61
2019-06-07T17:55:30.796Z,56.63
2019-06-07T18:00:51.300Z,57.25
2019-06-07T18:05:53.543Z,58.31
2019-06-07T18:10:54.537Z,58.40
2019-06-07T18:15:59.375Z,59.28
2019-06-07T18:20:58.203Z,58.96
2019-06-07T18:25:59.078Z,58.75
2019-06-07T18:30:59.965Z,58.95
2019-06-07T18:36:01.576Z,59.79
2019-06-07T18:41:02.447Z,59.65
2019-06-07T18:46:03.430Z,60.60
2019-06-07T18:51:04.421Z,60.25
2019-06-07T18:56:05.370Z,60.05
2019-06-07T19:01:06.310Z,60.57
2019-06-07T19:06:07.225Z,61.25
2019-06-07T19:11:08.166Z,60.80
2019-06-07T19:16:09.053Z,60.91
2019-06-07T19:21:10.037Z,61.31
2019-06-07T19:26:10.927Z,62.00
2019-06-07T19:31:11.807Z,62.46
2019-06-07T19:36:12.740Z,62.67
2019-06-07T19:41:19.642Z,63.26
2019-06-07T19:46:16.368Z,63.41
2019-06-07T19:51:20.198Z,63.14
2019-06-07T19:56:20.028Z,63.28
2019-06-07T20:01:21.109Z,64.22
2019-06-07T20:06:21.990Z,64.57
2019-06-07T20:11:22.916Z,64.85
2019-06-07T20:16:23.747Z,64.78
2019-06-07T20:21:24.620Z,65.49
2019-06-07T20:26:25.504Z,65.83
2019-06-07T20:31:26.387Z,66.26
2019-06-07T20:36:27.275Z,65.42
2019-06-07T20:41:28.172Z,65.29
2019-06-07T20:46:29.035Z,67.37
2019-06-07T20:51:29.908Z,66.77
2019-06-07T20:56:30.786Z,67.51
2019-06-07T21:01:31.692Z,66.25
2019-06-07T21:06:32.551Z,68.20
2019-06-07T21:11:33.432Z,67.57
2019-06-07T21:16:34.415Z,67.29
2019-06-07T21:21:35.399Z,67.46
2019-06-07T21:26:36.270Z,69.22
2019-06-07T21:31:37.156Z,69.70
2019-06-07T21:36:38.059Z,69.66
2019-06-07T21:41:38.931Z,69.19
2019-06-07T21:46:39.804Z,69.74
2019-06-07T21:51:40.698Z,68.49
2019-06-07T21:56:41.570Z,69.09
2019-06-07T22:01:42.830Z,68.68
2019-06-07T22:06:43.702Z,69.43
2019-06-07T22:11:44.595Z,69.07
2019-06-07T22:16:45.586Z,70.23
2019-06-07T22:21:59.236Z,71.37
2019-06-07T22:26:49.344Z,70.52
2019-06-07T22:31:50.221Z,72.06
2019-06-07T22:36:51.120Z,70.57
2019-06-07T22:41:52.004Z,73.17
2019-06-07T22:46:53.005Z,71.85
2019-06-07T22:52:07.981Z,74.90
2019-06-07T22:56:58.581Z,73.51
2019-06-07T23:01:59.547Z,73.29
2019-06-07T23:07:00.416Z,73.30
2019-06-07T23:12:01.298Z,75.10
2019-06-07T23:17:02.401Z,73.33
2019-06-07T23:22:03.377Z,74.25
2019-06-07T23:27:04.256Z,74.83
2019-06-07T23:32:05.138Z,73.02
2019-06-07T23:37:06.037Z,74.02
2019-06-07T23:42:06.919Z,72.45
2019-06-07T23:47:11.083Z,73.94
2019-06-07T23:52:11.661Z,75.58
2019-06-07T23:57:13.987Z,75.06
